Time;durP1;ratioP1;P1;durP2;ratioP2;P2;SDS_P1;SDS_P2;PMS_P1;PMS_P2;Temp;Humidity;BMP_temperature;BMP_pressure;BME280_temperature;BME280_humidity;BME280_pressure;Samples;Min_cycle;Max_cycle;Signal;HPM_P1;HPM_P2
2022/05/26 00:02:03;;;;;;;1.50;0.60;;;16.70;91.00;;;;;;5091507;22;20065;-50
2022/05/26 00:04:28;;;;;;;2.83;0.80;;;16.70;91.10;;;;;;5052776;28;20598;-50
2022/05/26 00:06:55;;;;;;;2.65;0.70;;;16.60;91.10;;;;;;5052593;28;20025;-52
2022/05/26 00:09:22;;;;;;;3.42;1.00;;;16.60;91.00;;;;;;5052745;28;20021;-49
2022/05/26 00:11:47;;;;;;;0.60;0.60;;;16.60;90.90;;;;;;5052704;28;20031;-49
2022/05/26 00:14:13;;;;;;;1.48;1.05;;;16.60;91.00;;;;;;5051611;28;20120;-49
2022/05/26 00:16:42;;;;;;;3.40;0.63;;;16.60;91.00;;;;;;5052773;28;20094;-43
2022/05/26 00:19:08;;;;;;;0.63;0.60;;;16.60;90.90;;;;;;5052562;28;20447;-47
2022/05/26 00:21:34;;;;;;;5.30;0.70;;;16.60;90.90;;;;;;5051380;28;20484;-48
2022/05/26 00:24:00;;;;;;;3.20;1.10;;;16.60;90.90;;;;;;5052503;28;20401;-43
2022/05/26 00:26:26;;;;;;;0.55;0.55;;;16.60;90.90;;;;;;5051387;28;20021;-49
2022/05/26 00:28:51;;;;;;;1.42;0.82;;;16.60;90.80;;;;;;5052215;28;20048;-50
2022/05/26 00:31:17;;;;;;;2.33;0.80;;;16.50;90.90;;;;;;5052347;28;20052;-52
2022/05/26 00:33:43;;;;;;;2.83;0.60;;;16.50;91.00;;;;;;5052229;28;20127;-50
2022/05/26 00:36:11;;;;;;;4.07;0.75;;;16.50;90.90;;;;;;5052541;28;20035;-49
2022/05/26 00:38:41;;;;;;;1.27;0.52;;;16.50;91.00;;;;;;5052595;28;20083;-50
2022/05/26 00:41:13;;;;;;;3.92;0.80;;;16.50;90.90;;;;;;5052561;28;20036;-48
2022/05/26 00:43:43;;;;;;;1.13;0.57;;;16.40;91.10;;;;;;5052257;28;20578;-43
2022/05/26 00:46:28;;;;;;;3.65;0.70;;;16.40;91.10;;;;;;5052349;28;20025;-50
2022/05/26 00:48:59;;;;;;;2.60;0.93;;;16.30;91.30;;;;;;5052336;28;20032;-53
2022/05/26 00:51:32;;;;;;;1.65;0.60;;;16.30;91.40;;;;;;5052308;28;20511;-49
2022/05/26 00:54:03;;;;;;;5.93;0.88;;;16.30;91.60;;;;;;5051002;28;20037;-43
2022/05/26 00:56:40;;;;;;;1.58;0.77;;;16.20;91.60;;;;;;5052286;28;20029;-46
2022/05/26 00:59:18;;;;;;;0.60;0.60;;;16.20;91.60;;;;;;5052039;28;20370;-49
2022/05/26 01:01:44;;;;;;;0.85;0.77;;;16.20;91.80;;;;;;5015836;28;1035607;-42
2022/05/26 01:04:14;;;;;;;1.27;0.60;;;16.10;92.00;;;;;;5053195;28;20152;-48
2022/05/26 01:06:57;;;;;;;3.00;0.95;;;16.10;92.20;;;;;;5053065;28;20393;-48
2022/05/26 01:09:23;;;;;;;1.65;0.88;;;16.00;92.40;;;;;;5052938;28;20052;-46
2022/05/26 01:11:48;;;;;;;1.85;0.70;;;16.00;92.60;;;;;;5052754;28;20029;-49
2022/05/26 01:14:21;;;;;;;0.80;0.80;;;16.00;92.80;;;;;;5052986;28;20052;-49
2022/05/26 01:17:20;;;;;;;1.33;0.98;;;16.10;92.80;;;;;;5051223;28;20381;-47
2022/05/26 01:19:49;;;;;;;0.93;0.80;;;16.00;92.80;;;;;;5052501;28;20170;-46
2022/05/26 01:22:23;;;;;;;5.05;0.88;;;16.00;92.90;;;;;;5052657;28;20029;-50
2022/05/26 01:24:51;;;;;;;0.73;0.70;;;16.00;92.90;;;;;;5052485;28;20032;-46
2022/05/26 01:27:17;;;;;;;7.25;0.90;;;16.00;92.60;;;;;;5052372;28;20161;-47
2022/05/26 01:30:20;;;;;;;1.92;0.98;;;16.00;92.70;;;;;;5052173;28;20384;-44
2022/05/26 01:33:04;;;;;;;0.93;0.60;;;16.00;92.30;;;;;;5052014;28;20049;-50
2022/05/26 01:35:36;;;;;;;3.05;0.70;;;16.00;92.20;;;;;;5052491;28;20025;-51
2022/05/26 01:38:22;;;;;;;5.80;0.98;;;16.10;92.00;;;;;;5052152;28;20021;-49
2022/05/26 01:40:48;;;;;;;;;;;16.20;91.70;;;;;;5052696;28;20060;-55
2022/05/26 01:43:40;;;;;;;4.55;1.27;;;16.20;91.60;;;;;;5052051;28;20400;-47
2022/05/26 01:46:20;;;;;;;2.88;0.90;;;16.20;91.70;;;;;;5052067;28;20025;-48
2022/05/26 01:49:00;;;;;;;3.47;0.63;;;16.20;91.70;;;;;;5052158;28;20086;-46
2022/05/26 01:51:47;;;;;;;5.30;0.98;;;16.20;91.50;;;;;;5052066;28;20028;-43
2022/05/26 01:54:23;;;;;;;1.85;0.55;;;16.20;91.80;;;;;;5052272;28;20021;-48
2022/05/26 01:57:10;;;;;;;3.70;0.73;;;16.20;91.80;;;;;;5052261;28;20032;-48
2022/05/26 01:59:49;;;;;;;1.95;0.60;;;16.10;91.90;;;;;;5052029;28;20032;-48
2022/05/26 02:02:28;;;;;;;1.38;0.82;;;16.10;92.00;;;;;;5050572;28;20033;-48
2022/05/26 02:05:01;;;;;;;4.13;0.90;;;16.20;91.90;;;;;;5051885;28;20025;-45
2022/05/26 02:07:35;;;;;;;6.30;0.88;;;16.10;92.10;;;;;;5051528;28;20036;-46
2022/05/26 02:10:08;;;;;;;0.73;0.60;;;16.10;92.10;;;;;;5051865;28;20140;-48
2022/05/26 02:12:40;;;;;;;0.90;0.70;;;16.10;92.10;;;;;;5051449;28;20032;-51
2022/05/26 02:15:15;;;;;;;1.27;0.80;;;16.10;92.20;;;;;;5050507;28;20067;-46
2022/05/26 02:17:50;;;;;;;1.98;1.02;;;16.00;92.40;;;;;;5051355;28;20025;-49
2022/05/26 02:20:26;;;;;;;0.70;0.70;;;15.90;92.60;;;;;;5051799;28;20021;-47
2022/05/26 02:22:59;;;;;;;1.92;0.88;;;15.90;92.70;;;;;;5051406;28;20039;-48
2022/05/26 02:25:26;;;;;;;3.10;0.80;;;15.90;93.00;;;;;;5051698;28;20444;-49
2022/05/26 02:27:54;;;;;;;2.45;0.90;;;15.80;93.20;;;;;;5051250;28;20099;-48
2022/05/26 02:30:22;;;;;;;2.33;0.57;;;15.80;93.40;;;;;;5051270;28;20378;-47
2022/05/26 02:32:50;;;;;;;1.45;0.90;;;15.70;93.60;;;;;;5051276;28;20025;-42
2022/05/26 02:35:24;;;;;;;7.72;1.77;;;15.70;93.60;;;;;;5051518;28;20396;-48
2022/05/26 02:37:54;;;;;;;4.22;0.88;;;15.70;93.60;;;;;;5050890;28;20025;-48
2022/05/26 02:40:19;;;;;;;1.00;0.90;;;15.70;93.80;;;;;;5051614;28;20025;-48
2022/05/26 02:42:49;;;;;;;0.60;0.60;;;15.70;93.70;;;;;;5051115;28;20115;-45
2022/05/26 02:45:24;;;;;;;1.27;0.70;;;15.70;93.70;;;;;;5052458;28;20029;-48
2022/05/26 02:48:22;;;;;;;1.65;1.00;;;15.70;93.80;;;;;;5055208;28;20021;-46
2022/05/26 02:51:18;;;;;;;0.82;0.70;;;15.70;93.70;;;;;;5037673;28;20090;-47
2022/05/26 02:53:55;;;;;;;3.22;1.08;;;15.70;93.80;;;;;;5055339;28;20112;-46
2022/05/26 02:56:36;;;;;;;1.90;0.80;;;15.70;93.80;;;;;;5055361;28;20670;-47
2022/05/26 02:59:25;;;;;;;2.55;0.73;;;15.70;93.90;;;;;;5055000;28;20024;-42
2022/05/26 03:02:08;;;;;;;1.10;0.68;;;15.70;94.10;;;;;;5054996;28;20025;-49
2022/05/26 03:04:43;;;;;;;0.73;0.73;;;15.70;94.10;;;;;;5055267;28;20108;-48
2022/05/26 03:07:13;;;;;;;1.60;0.70;;;15.80;94.00;;;;;;5053615;28;20021;-48
2022/05/26 03:09:41;;;;;;;1.52;0.80;;;15.70;94.10;;;;;;5055192;28;20036;-49
2022/05/26 03:12:21;;;;;;;3.25;1.00;;;15.70;93.90;;;;;;5054792;28;20465;-49
2022/05/26 03:14:46;;;;;;;1.67;0.68;;;15.80;93.90;;;;;;5055029;28;20497;-45
2022/05/26 03:17:12;;;;;;;2.67;0.68;;;15.70;94.10;;;;;;5054653;28;20044;-48
2022/05/26 03:19:37;;;;;;;3.65;1.23;;;15.70;93.90;;;;;;5054864;28;20031;-49
2022/05/26 03:22:03;;;;;;;2.42;1.00;;;15.70;94.00;;;;;;5055159;28;20036;-48
2022/05/26 03:24:29;;;;;;;1.13;0.80;;;15.70;93.80;;;;;;5054883;28;20055;-51
2022/05/26 03:26:54;;;;;;;1.30;1.02;;;15.70;93.90;;;;;;5054430;28;20481;-49
2022/05/26 03:29:20;;;;;;;1.63;0.73;;;15.70;93.70;;;;;;5054836;28;20087;-47
2022/05/26 03:31:45;;;;;;;0.98;0.70;;;15.70;93.90;;;;;;5054182;28;20400;-49
2022/05/26 03:42:23;;;;;;;1.70;1.02;;;15.80;93.70;;;;;;5054327;28;20547;-47
2022/05/26 03:44:49;;;;;;;0.73;0.68;;;15.80;93.60;;;;;;5054538;28;20029;-46
2022/05/26 03:47:15;;;;;;;1.48;0.93;;;15.80;93.80;;;;;;5054062;28;20096;-48
2022/05/26 03:49:40;;;;;;;1.17;0.70;;;15.80;93.60;;;;;;5054386;28;20108;-47
2022/05/26 03:52:06;;;;;;;2.92;0.60;;;15.80;93.70;;;;;;5054159;28;20333;-48
2022/05/26 03:54:33;;;;;;;1.52;0.70;;;15.70;94.00;;;;;;5054328;28;20074;-46
2022/05/26 03:56:59;;;;;;;2.85;0.55;;;15.70;94.10;;;;;;5053528;28;20078;-49
2022/05/26 03:59:24;;;;;;;2.35;0.60;;;15.70;94.00;;;;;;5054279;28;20508;-47
2022/05/26 04:01:50;;;;;;;2.90;1.10;;;15.70;94.30;;;;;;5054098;28;20457;-46
2022/05/26 04:04:16;;;;;;;1.67;0.80;;;15.70;94.10;;;;;;5054413;28;20048;-48
2022/05/26 04:06:42;;;;;;;0.73;0.73;;;15.70;94.20;;;;;;5053996;28;20029;-45
2022/05/26 04:09:07;;;;;;;3.92;0.70;;;15.70;94.10;;;;;;5054453;28;20033;-46
2022/05/26 04:11:33;;;;;;;7.47;0.93;;;15.60;94.20;;;;;;5053907;28;20033;-49
2022/05/26 04:13:58;;;;;;;1.60;0.70;;;15.50;94.30;;;;;;5053993;28;20037;-46
2022/05/26 04:16:24;;;;;;;0.50;0.45;;;15.60;94.50;;;;;;5053972;28;20502;-47
2022/05/26 04:18:51;;;;;;;1.90;0.70;;;15.50;94.60;;;;;;5053691;28;20029;-48
2022/05/26 04:21:17;;;;;;;2.80;0.55;;;15.50;94.60;;;;;;5053966;28;20033;-47
2022/05/26 04:23:42;;;;;;;5.68;1.10;;;15.40;94.90;;;;;;5053709;28;20488;-47
2022/05/26 04:26:09;;;;;;;0.75;0.65;;;15.40;95.20;;;;;;5053995;28;20032;-48
2022/05/26 04:28:35;;;;;;;1.15;0.70;;;15.40;95.40;;;;;;5053360;28;20043;-47
2022/05/26 04:31:02;;;;;;;1.30;0.60;;;15.50;95.20;;;;;;5051880;28;20020;-47
2022/05/26 04:33:28;;;;;;;5.00;0.70;;;15.50;95.10;;;;;;5053416;28;20064;-48
2022/05/26 04:35:54;;;;;;;6.63;0.77;;;15.60;95.20;;;;;;5053477;28;20033;-46
2022/05/26 04:38:20;;;;;;;3.55;1.35;;;15.60;95.20;;;;;;5053148;28;20059;-47
2022/05/26 04:40:54;;;;;;;0.60;0.60;;;15.60;95.30;;;;;;5053462;28;20029;-47
2022/05/26 04:43:20;;;;;;;2.58;0.52;;;15.80;95.10;;;;;;5053322;28;20029;-46
2022/05/26 04:45:46;;;;;;;2.00;0.57;;;15.80;95.00;;;;;;5053418;28;20025;-49
2022/05/26 04:48:12;;;;;;;0.47;0.43;;;15.90;95.20;;;;;;5053012;28;20029;-46
2022/05/26 04:50:37;;;;;;;2.90;0.60;;;15.90;95.40;;;;;;5054743;28;20047;-46
2022/05/26 04:53:03;;;;;;;2.30;0.90;;;16.00;95.40;;;;;;5053966;28;20092;-48
2022/05/26 04:55:28;;;;;;;3.20;0.95;;;16.20;95.50;;;;;;5053361;28;20025;-46
2022/05/26 04:57:54;;;;;;;5.28;0.82;;;17.00;95.00;;;;;;5052895;28;20056;-47
2022/05/26 05:00:20;;;;;;;4.78;1.13;;;18.20;92.40;;;;;;5053639;28;20029;-48
2022/05/26 05:02:45;;;;;;;0.43;0.43;;;19.50;91.20;;;;;;5052990;28;20029;-46
2022/05/26 05:05:12;;;;;;;1.25;0.70;;;20.50;88.40;;;;;;5053731;28;20056;-47
2022/05/26 05:07:37;;;;;;;2.58;0.90;;;21.50;84.50;;;;;;5051871;28;20021;-49
2022/05/26 05:10:04;;;;;;;0.80;0.50;;;22.40;82.40;;;;;;5052888;28;20017;-52
2022/05/26 05:12:30;;;;;;;1.92;0.60;;;23.40;79.80;;;;;;5052522;28;20498;-52
2022/05/26 05:14:56;;;;;;;0.40;0.40;;;24.00;77.30;;;;;;5052676;28;20033;-43
2022/05/26 05:17:24;;;;;;;1.02;0.50;;;23.80;77.10;;;;;;5052335;28;20545;-51
2022/05/26 05:19:49;;;;;;;1.83;0.50;;;22.80;78.60;;;;;;5052502;28;20028;-47
2022/05/26 05:22:30;;;;;;;2.80;0.60;;;22.00;80.90;;;;;;5052546;28;20035;-48
2022/05/26 05:25:07;;;;;;;0.75;0.47;;;21.30;83.20;;;;;;5052440;28;20021;-49
2022/05/26 05:27:42;;;;;;;3.22;0.47;;;20.50;85.40;;;;;;5052355;28;20117;-46
2022/05/26 05:30:14;;;;;;;2.28;0.68;;;19.70;88.30;;;;;;5052247;28;20197;-49
2022/05/26 05:32:52;;;;;;;0.57;0.57;;;19.70;89.80;;;;;;5052291;28;20124;-48
2022/05/26 05:35:24;;;;;;;1.17;0.52;;;20.50;87.90;;;;;;5052492;28;20071;-50
2022/05/26 05:37:50;;;;;;;1.85;0.60;;;21.70;84.50;;;;;;5051921;28;20025;-48
2022/05/26 05:40:15;;;;;;;0.70;0.60;;;22.60;82.50;;;;;;5052350;28;20086;-53
2022/05/26 05:42:41;;;;;;;1.65;0.47;;;23.60;79.80;;;;;;5052147;28;20025;-52
2022/05/26 05:45:07;;;;;;;1.10;0.60;;;24.00;78.00;;;;;;5052376;28;20036;-47
2022/05/26 05:47:33;;;;;;;2.38;0.50;;;24.40;77.40;;;;;;5052067;28;20045;-47
2022/05/26 05:49:58;;;;;;;0.45;0.32;;;25.00;75.80;;;;;;5052861;28;20052;-46
2022/05/26 05:52:25;;;;;;;2.22;0.63;;;25.60;73.80;;;;;;5052800;28;20511;-46
2022/05/26 05:54:50;;;;;;;0.70;0.50;;;25.90;73.60;;;;;;5052529;28;20025;-46
2022/05/26 05:57:16;;;;;;;0.47;0.40;;;26.10;72.70;;;;;;5048912;28;20497;-51
2022/05/26 05:59:42;;;;;;;1.92;0.40;;;25.90;72.30;;;;;;5051818;28;20632;-47
2022/05/26 06:02:08;;;;;;;2.22;0.70;;;25.30;73.50;;;;;;5051914;28;20538;-48
2022/05/26 06:04:41;;;;;;;2.00;0.40;;;24.00;75.20;;;;;;5052079;28;20032;-48
2022/05/26 06:07:20;;;;;;;0.45;0.40;;;22.70;78.10;;;;;;5051705;28;20466;-51
2022/05/26 06:09:47;;;;;;;0.75;0.40;;;21.60;81.40;;;;;;5084344;22;20503;-44
2022/05/26 06:12:13;;;;;;;3.08;0.65;;;20.70;84.20;;;;;;5051146;28;20025;-46
2022/05/26 06:14:40;;;;;;;6.07;0.63;;;19.90;86.60;;;;;;5050704;28;20579;-44
2022/05/26 06:17:09;;;;;;;4.00;0.70;;;19.50;88.40;;;;;;5049579;28;20488;-46
2022/05/26 06:19:35;;;;;;;1.75;0.50;;;19.40;89.10;;;;;;5051533;28;20040;-46
2022/05/26 06:22:19;;;;;;;2.38;0.60;;;19.40;89.60;;;;;;5051611;28;20091;-47
2022/05/26 06:24:46;;;;;;;3.65;0.80;;;19.50;89.80;;;;;;5053888;28;20057;-46
2022/05/26 06:29:59;;;;;;;1.38;0.70;;;19.30;90.00;;;;;;5055182;28;20092;-43
2022/05/26 06:37:57;;;;;;;3.03;0.70;;;18.70;91.00;;;;;;5051671;28;20347;-45
2022/05/26 06:40:22;;;;;;;1.58;0.60;;;18.50;91.30;;;;;;5063498;28;20107;-42
2022/05/26 06:42:48;;;;;;;2.28;0.82;;;18.30;92.10;;;;;;5043666;28;20083;-46
2022/05/26 06:45:16;;;;;;;2.40;0.77;;;18.20;92.00;;;;;;5059445;28;20400;-46
2022/05/26 06:47:41;;;;;;;3.17;0.50;;;18.20;92.40;;;;;;5056407;28;20025;-43
2022/05/26 06:50:09;;;;;;;14.15;1.02;;;18.10;92.50;;;;;;5070102;28;20038;-48
2022/05/26 06:52:34;;;;;;;1.05;0.60;;;18.00;92.60;;;;;;5070123;28;20514;-45
2022/05/26 06:55:03;;;;;;;1.13;0.45;;;18.00;92.90;;;;;;5056877;28;20029;-44
2022/05/26 06:57:29;;;;;;;2.72;1.35;;;18.10;92.90;;;;;;5050975;28;20060;-46
2022/05/26 06:59:55;;;;;;;2.17;0.60;;;18.10;93.00;;;;;;5051068;28;20033;-48
2022/05/26 07:02:20;;;;;;;2.38;0.73;;;18.10;92.90;;;;;;5051193;28;20037;-44
2022/05/26 07:04:46;;;;;;;1.48;0.50;;;18.00;93.00;;;;;;5056378;28;20036;-44
2022/05/26 07:07:14;;;;;;;1.35;0.60;;;18.00;93.50;;;;;;5052945;28;20395;-45
2022/05/26 07:09:39;;;;;;;2.53;0.60;;;18.10;93.00;;;;;;5051049;28;20033;-45
2022/05/26 07:12:05;;;;;;;4.00;0.50;;;18.20;92.80;;;;;;5051254;28;20058;-45
2022/05/26 07:14:31;;;;;;;3.17;1.05;;;18.30;92.90;;;;;;5051608;28;20065;-45
2022/05/26 07:16:56;;;;;;;1.50;0.70;;;18.40;92.00;;;;;;5050918;28;20087;-43
2022/05/26 07:19:22;;;;;;;2.28;0.57;;;18.60;92.10;;;;;;5050259;28;20027;-45
2022/05/26 07:21:49;;;;;;;2.45;0.75;;;18.70;92.30;;;;;;5051486;28;20025;-44
2022/05/26 07:24:20;;;;;;;0.52;0.43;;;18.80;92.30;;;;;;5050575;28;20071;-45
2022/05/26 07:26:47;;;;;;;2.40;0.50;;;18.90;91.20;;;;;;5050981;28;20091;-45
2022/05/26 07:29:14;;;;;;;2.03;0.88;;;18.90;91.40;;;;;;5050881;28;20029;-51
2022/05/26 07:31:40;;;;;;;7.82;0.65;;;19.00;91.00;;;;;;5052609;28;20035;-48
2022/05/26 07:34:05;;;;;;;10.02;1.80;;;19.20;91.10;;;;;;5062279;28;20500;-45
2022/05/26 07:42:06;;;;;;;2.25;0.60;;;19.30;91.20;;;;;;5054554;28;20063;-46
2022/05/26 07:44:37;;;;;;;2.55;0.80;;;19.40;90.80;;;;;;5054493;28;20033;-44
2022/05/26 07:47:05;;;;;;;0.43;0.43;;;19.40;91.10;;;;;;5054236;28;20029;-43
2022/05/26 07:49:42;;;;;;;5.72;0.85;;;19.40;91.00;;;;;;5062910;28;20033;-43
2022/05/26 07:52:09;;;;;;;2.20;0.70;;;19.40;91.10;;;;;;5065389;28;20025;-47
2022/05/26 07:54:35;;;;;;;0.80;0.70;;;19.50;91.10;;;;;;5054903;28;20082;-47
2022/05/26 07:57:02;;;;;;;1.30;0.65;;;19.60;91.00;;;;;;5052811;28;20029;-46
2022/05/26 07:59:28;;;;;;;4.53;0.68;;;19.80;91.00;;;;;;5054411;28;20037;-45
2022/05/26 08:01:53;;;;;;;3.50;0.85;;;20.20;90.40;;;;;;5054274;28;20024;-45
2022/05/26 08:04:19;;;;;;;0.98;0.77;;;20.60;89.40;;;;;;5054190;28;20031;-46
2022/05/26 08:06:46;;;;;;;2.65;1.63;;;20.90;88.90;;;;;;5054114;28;20502;-47
2022/05/26 08:09:14;;;;;;;1.45;0.57;;;21.10;87.90;;;;;;5053999;28;20504;-45
2022/05/26 08:11:40;;;;;;;2.22;0.45;;;21.30;87.70;;;;;;5054048;28;20556;-47
2022/05/26 08:14:05;;;;;;;0.98;0.50;;;21.50;87.20;;;;;;5054101;28;20063;-47
2022/05/26 08:16:31;;;;;;;1.77;0.50;;;21.50;87.30;;;;;;5053928;28;20033;-47
2022/05/26 08:18:57;;;;;;;3.33;0.52;;;22.00;86.90;;;;;;5053423;28;20391;-46
2022/05/26 08:21:23;;;;;;;1.20;0.50;;;22.20;85.20;;;;;;5053944;28;20052;-47
2022/05/26 08:23:49;;;;;;;1.65;0.55;;;22.20;85.20;;;;;;5057834;28;20622;-46
2022/05/26 08:26:15;;;;;;;2.38;0.63;;;22.00;85.70;;;;;;5054042;28;20028;-45
2022/05/26 08:28:42;;;;;;;1.98;0.57;;;21.60;85.70;;;;;;5053752;28;20033;-45
2022/05/26 08:31:10;;;;;;;3.30;0.65;;;21.30;86.90;;;;;;5053859;28;20025;-47
2022/05/26 08:33:36;;;;;;;2.28;0.75;;;21.10;87.90;;;;;;5054154;28;20558;-49
2022/05/26 08:36:05;;;;;;;2.58;0.80;;;21.00;87.90;;;;;;5054019;28;20463;-44
2022/05/26 08:38:31;;;;;;;0.82;0.55;;;20.80;88.80;;;;;;5057191;28;20041;-45
2022/05/26 08:40:57;;;;;;;3.20;0.80;;;20.60;89.10;;;;;;5062630;28;20527;-45
2022/05/26 08:43:29;;;;;;;1.05;0.55;;;20.60;90.10;;;;;;5059700;28;20116;-49
2022/05/26 08:45:55;;;;;;;3.70;0.60;;;20.70;87.40;;;;;;5065151;28;20067;-50
2022/05/26 08:48:56;;;;;;;0.57;0.40;;;21.00;86.50;;;;;;5053991;28;20439;-45
2022/05/26 08:51:49;;;;;;;1.13;0.32;;;20.90;86.10;;;;;;5026744;28;20049;-47
2022/05/26 08:54:22;;;;;;;4.57;0.60;;;20.90;85.20;;;;;;5045167;28;20029;-49
2022/05/26 08:56:48;;;;;;;0.80;0.70;;;20.70;84.70;;;;;;5055107;28;20570;-46
2022/05/26 08:59:15;;;;;;;0.65;0.60;;;20.70;85.90;;;;;;5058496;28;20028;-46
2022/05/26 09:01:43;;;;;;;1.23;0.60;;;20.60;85.80;;;;;;5053028;28;20025;-48
2022/05/26 09:04:10;;;;;;;0.85;0.50;;;20.50;87.60;;;;;;5054699;28;20435;-47
2022/05/26 09:15:04;;;;;;;0.35;0.35;;;20.20;88.30;;;;;;5053394;28;20108;-47
2022/05/26 09:17:30;;;;;;;0.73;0.38;;;20.20;87.90;;;;;;5052413;28;20021;-43
2022/05/26 09:19:57;;;;;;;1.55;0.60;;;20.30;86.70;;;;;;5050889;28;20027;-44
2022/05/26 09:22:40;;;;;;;0.75;0.40;;;20.40;87.00;;;;;;5050716;28;20021;-44
2022/05/26 09:25:12;;;;;;;4.43;0.90;;;20.50;85.80;;;;;;5052411;28;20483;-44
2022/05/26 09:27:38;;;;;;;13.15;7.97;;;20.60;84.80;;;;;;5052146;28;20028;-44
2022/05/26 09:30:25;;;;;;;4.55;1.80;;;20.60;84.20;;;;;;5052381;28;20024;-43
2022/05/26 09:32:51;;;;;;;2.97;0.90;;;20.60;85.10;;;;;;5052762;28;20017;-43
2022/05/26 09:35:19;;;;;;;2.90;0.60;;;20.80;86.20;;;;;;5053278;28;20033;-45
2022/05/26 09:37:54;;;;;;;1.63;0.65;;;20.80;85.70;;;;;;5059872;28;20369;-46
2022/05/26 09:40:21;;;;;;;1.15;0.63;;;20.90;85.70;;;;;;5056919;28;20108;-46
2022/05/26 09:42:56;;;;;;;3.13;0.70;;;20.90;85.40;;;;;;5052675;28;20060;-43
2022/05/26 09:45:23;;;;;;;;;;;21.00;84.90;;;;;;5052974;28;20086;-44
2022/05/26 09:47:54;;;;;;;2.30;0.82;;;21.30;83.80;;;;;;5052136;28;19904;-44
2022/05/26 09:50:37;;;;;;;2.35;0.77;;;21.60;83.40;;;;;;5052107;28;20025;-44
2022/05/26 09:53:09;;;;;;;0.82;0.75;;;21.90;82.00;;;;;;5052216;28;20017;-44
2022/05/26 09:55:49;;;;;;;1.33;0.70;;;22.10;81.20;;;;;;5051938;28;20052;-44
2022/05/26 09:58:37;;;;;;;2.65;0.57;;;22.40;81.00;;;;;;5051654;28;20066;-46
2022/05/26 10:01:26;;;;;;;2.38;0.60;;;22.40;80.90;;;;;;5051853;28;20516;-47
2022/05/26 10:04:12;;;;;;;3.08;0.50;;;22.30;80.10;;;;;;5051503;28;20033;-46
2022/05/26 10:06:48;;;;;;;1.08;0.60;;;22.30;81.00;;;;;;5051826;28;20048;-46
2022/05/26 10:09:32;;;;;;;2.22;0.70;;;22.00;80.20;;;;;;5051331;28;20385;-47
2022/05/26 10:12:06;;;;;;;2.90;0.80;;;22.00;81.20;;;;;;5052541;28;20446;-43
2022/05/26 10:14:50;;;;;;;1.73;0.80;;;22.10;80.00;;;;;;5061444;28;20032;-43
2022/05/26 10:17:34;;;;;;;2.00;1.50;;;22.10;79.80;;;;;;5067698;28;20037;-49
2022/05/26 10:20:23;;;;;;;0.75;0.40;;;22.30;78.70;;;;;;5071451;28;20546;-44
2022/05/26 10:23:22;;;;;;;1.13;0.40;;;22.00;79.10;;;;;;5063757;28;20025;-48
2022/05/26 10:25:56;;;;;;;3.15;0.45;;;21.80;78.90;;;;;;5051503;28;20033;-44
2022/05/26 10:28:47;;;;;;;1.85;0.88;;;21.60;79.20;;;;;;5049685;28;20498;-45
2022/05/26 10:31:29;;;;;;;0.98;0.50;;;21.60;79.30;;;;;;5051528;28;20098;-46
2022/05/26 10:34:17;;;;;;;0.40;0.40;;;21.60;77.50;;;;;;5065065;28;20722;-48
2022/05/26 10:37:00;;;;;;;4.97;2.15;;;21.60;76.70;;;;;;5057930;28;20083;-45
2022/05/26 10:39:52;;;;;;;4.82;2.33;;;21.70;76.50;;;;;;5055314;28;20090;-44
2022/05/26 10:42:31;;;;;;;2.92;1.05;;;21.80;77.30;;;;;;5058966;28;20570;-44
2022/05/26 10:45:04;;;;;;;2.20;0.40;;;21.80;78.00;;;;;;5069278;28;20031;-48
2022/05/26 10:47:42;;;;;;;0.50;0.50;;;21.80;78.50;;;;;;5051243;28;20020;-48
2022/05/26 10:50:27;;;;;;;0.40;0.40;;;21.80;79.30;;;;;;5051349;28;20064;-49
2022/05/26 10:53:15;;;;;;;0.68;0.50;;;21.80;79.70;;;;;;5036059;28;20021;-44
2022/05/26 10:55:57;;;;;;;1.27;0.47;;;21.80;78.10;;;;;;5051674;28;20365;-47
2022/05/26 10:58:32;;;;;;;2.35;0.60;;;21.70;77.60;;;;;;5051832;28;20023;-45
2022/05/26 11:01:02;;;;;;;1.52;0.52;;;21.60;80.10;;;;;;5071695;28;20499;-44
2022/05/26 11:03:37;;;;;;;2.17;0.40;;;21.60;77.20;;;;;;5071252;28;20068;-46
2022/05/26 11:06:05;;;;;;;;;;;21.70;78.20;;;;;;5063464;28;20020;-45
2022/05/26 11:08:51;;;;;;;1.15;0.55;;;21.80;74.60;;;;;;5055263;28;20011;-45
2022/05/26 11:11:20;;;;;;;3.05;0.50;;;21.90;77.60;;;;;;5067820;28;20056;-47
2022/05/26 11:13:55;;;;;;;0.35;0.35;;;21.90;77.40;;;;;;5075716;28;20040;-46
2022/05/26 11:19:37;;;;;;;1.63;0.50;;;21.90;74.30;;;;;;5059124;28;20159;-45
2022/05/26 11:22:04;;;;;;;0.73;0.70;;;22.00;75.40;;;;;;5055168;28;20537;-45
2022/05/26 11:24:30;;;;;;;1.38;1.27;;;22.00;76.30;;;;;;5065604;28;20102;-46
2022/05/26 11:27:05;;;;;;;0.50;0.40;;;22.00;76.20;;;;;;5056294;28;20025;-46
2022/05/26 11:29:34;;;;;;;;;;;22.10;75.70;;;;;;5053927;28;20052;-46
2022/05/26 11:38:11;;;;;;;4.63;0.70;;;21.90;76.20;;;;;;5068198;28;20035;-46
2022/05/26 11:41:31;;;;;;;1.17;0.52;;;21.90;76.10;;;;;;5070411;28;20029;-44
2022/05/26 11:43:59;;;;;;;0.80;0.70;;;22.00;75.20;;;;;;5061797;28;20066;-47
2022/05/26 11:46:47;;;;;;;0.63;0.40;;;22.10;76.60;;;;;;5060816;28;20432;-45
2022/05/26 11:49:43;;;;;;;1.50;0.45;;;22.20;75.90;;;;;;5054973;28;20021;-49
2022/05/26 11:52:27;;;;;;;1.58;0.47;;;22.30;75.90;;;;;;5055425;28;20025;-44
2022/05/26 11:54:52;;;;;;;0.50;0.50;;;22.40;75.40;;;;;;5056663;28;20025;-47
2022/05/26 11:57:41;;;;;;;0.63;0.40;;;22.30;76.40;;;;;;5055466;28;20047;-44
2022/05/26 12:00:15;;;;;;;1.38;0.50;;;22.30;75.50;;;;;;5056474;28;20032;-43
2022/05/26 12:03:02;;;;;;;2.65;0.63;;;22.30;75.10;;;;;;5055942;28;20084;-46
2022/05/26 12:05:30;;;;;;;0.57;0.50;;;22.30;75.00;;;;;;5055328;28;20068;-44
2022/05/26 12:08:03;;;;;;;0.95;0.60;;;22.00;76.30;;;;;;5054462;28;20096;-45
2022/05/26 12:10:38;;;;;;;2.13;0.50;;;21.80;76.10;;;;;;5081997;22;20596;-47
2022/05/26 12:13:19;;;;;;;1.17;0.57;;;21.70;76.80;;;;;;5072706;28;20021;-49
2022/05/26 12:16:17;;;;;;;1.25;0.60;;;21.70;77.90;;;;;;5074016;28;20081;-47
2022/05/26 12:19:01;;;;;;;2.33;0.77;;;21.70;78.20;;;;;;5073585;28;20031;-50
2022/05/26 12:21:29;;;;;;;4.03;1.38;;;21.70;77.60;;;;;;5069487;28;20029;-48
2022/05/26 12:23:56;;;;;;;12.57;7.60;;;21.50;78.40;;;;;;5062230;28;20024;-49
2022/05/26 12:26:45;;;;;;;4.15;0.52;;;21.40;76.80;;;;;;5073790;28;20426;-52
2022/05/26 12:29:42;;;;;;;2.38;0.80;;;21.40;77.60;;;;;;5073572;28;20423;-50
2022/05/26 12:32:21;;;;;;;0.80;0.50;;;21.40;78.60;;;;;;5073652;28;20032;-46
2022/05/26 12:35:05;;;;;;;0.68;0.50;;;21.50;78.30;;;;;;5071449;28;20056;-52
2022/05/26 12:37:47;;;;;;;2.55;0.82;;;21.60;79.90;;;;;;5071446;28;20488;-53
2022/05/26 12:40:46;;;;;;;0.90;0.50;;;21.80;77.30;;;;;;5072004;28;20036;-50
2022/05/26 12:43:26;;;;;;;1.85;1.30;;;22.00;77.70;;;;;;5073276;28;20032;-48
2022/05/26 12:45:56;;;;;;;1.42;0.80;;;22.00;77.20;;;;;;5067920;28;20024;-45
2022/05/26 12:48:45;;;;;;;1.00;0.52;;;21.80;77.60;;;;;;5052944;28;20032;-47
2022/05/26 12:51:13;;;;;;;1.90;0.50;;;21.70;78.10;;;;;;5059546;28;20087;-57
2022/05/26 12:53:47;;;;;;;4.35;0.70;;;21.70;77.90;;;;;;5053768;28;20489;-58
2022/05/26 12:56:20;;;;;;;2.72;0.40;;;21.70;79.20;;;;;;5058577;28;20041;-47
2022/05/26 12:58:57;;;;;;;1.02;0.50;;;21.90;77.50;;;;;;5067041;28;20020;-45
2022/05/26 13:01:24;;;;;;;3.00;0.90;;;21.90;75.60;;;;;;5071832;28;20134;-57
2022/05/26 13:04:10;;;;;;;1.10;0.75;;;22.00;75.60;;;;;;5061333;28;20538;-55
2022/05/26 13:06:41;;;;;;;2.72;0.55;;;22.00;75.90;;;;;;5070428;28;20017;-60
2022/05/26 13:09:13;;;;;;;5.68;0.77;;;22.00;76.60;;;;;;5060645;28;20024;-55
2022/05/26 13:11:54;;;;;;;0.40;0.40;;;22.10;77.90;;;;;;5072087;28;20032;-53
2022/05/26 13:14:28;;;;;;;1.75;0.65;;;22.30;75.60;;;;;;5066338;28;20029;-58
2022/05/26 13:17:01;;;;;;;3.30;0.70;;;22.40;74.40;;;;;;5051694;28;20017;-57
2022/05/26 13:19:28;;;;;;;2.00;0.52;;;22.40;73.60;;;;;;5052378;28;20021;-62
2022/05/26 13:21:56;;;;;;;0.70;0.60;;;22.30;75.10;;;;;;5052348;28;20111;-52
2022/05/26 13:24:28;;;;;;;1.05;0.60;;;22.30;76.90;;;;;;5052699;28;20492;-54
2022/05/26 13:26:58;;;;;;;4.03;3.47;;;22.30;77.70;;;;;;5050884;28;20037;-51
2022/05/26 13:29:24;;;;;;;5.60;4.40;;;22.40;77.00;;;;;;5049702;28;20031;-50
2022/05/26 13:34:50;;;;;;;2.08;0.70;;;22.30;76.50;;;;;;5031326;28;20036;-60
2022/05/26 13:37:22;;;;;;;2.80;1.63;;;22.20;77.80;;;;;;5062330;28;20039;-48
2022/05/26 13:40:09;;;;;;;1.05;0.50;;;22.30;77.00;;;;;;5067158;28;20025;-61
2022/05/26 13:42:36;;;;;;;4.88;1.05;;;22.30;76.20;;;;;;5068697;28;20013;-49
2022/05/26 13:45:04;;;;;;;2.38;0.60;;;22.30;76.30;;;;;;5052639;28;20196;-52
2022/05/26 13:47:29;;;;;;;1.00;0.60;;;22.30;75.20;;;;;;5063334;28;20025;-49
2022/05/26 13:50:02;;;;;;;2.38;1.05;;;22.10;75.30;;;;;;5052366;28;20025;-46
2022/05/26 13:52:31;;;;;;;2.63;0.75;;;22.20;76.10;;;;;;5066192;28;20051;-48
2022/05/26 13:54:58;;;;;;;2.30;0.70;;;22.10;77.00;;;;;;5069030;28;20111;-48
2022/05/26 13:57:32;;;;;;;1.25;1.10;;;22.10;76.90;;;;;;5065784;28;20025;-45